PWSweather.com
Personal Weather Stations
Station Observations
MAKAWAOWX1
Up Country Maui, Makawao, HI 96768

Up Country MauiMakawao, HI 96768

Lat: 20.856944, Lon: -156.3149667

Elevation: 1500

Station Type: Davis Vantage Pro

www.dwayneyamato@hawaiiantel.net

High Low Average
Temperature 79.9°F26.6°F 60.0°F15.6°F 67.9°F19.9°F
Dew Point 67.3°F19.6°F 57.7°F14.3°F 62.7°F17.1°F
Winds 12.8 mph ENE20.6 mph ENE Calm Calm 5.2 mph 8.4 mph
Wind Gusts 21.0 mph33.8 mph -- 8.7 mph14.0 mph
Humidity 95% 55% 84%
Pressure 30.10 in1019.30 in 30.00 in1015.90 in -
Precipitation 0.50 in12.70 in - -
Hour Temp Dew Point Humidity Winds Wind Gusts Pressure Precip Precip Rate Daily Precip Total
12:00 AM 62.5°F16.9°C 59.5°F15.3°C 90% Calm Calm -- 30.10 in1019.3 mb - 0.00 in0.0 mm 0.00 in0.0 mm
12:10 AM 62.3°F16.8°C 59.3°F15.2°C 90% Calm Calm -- 30.09 in1019.0 mb - 0.00 in0.0 mm 0.00 in0.0 mm
12:20 AM 62.1°F16.7°C 59.1°F15.1°C 90% Calm Calm -- 30.09 in1019.0 mb - 0.00 in0.0 mm 0.00 in0.0 mm
12:30 AM 62.0°F16.7°C 59.0°F15.0°C 90% Calm Calm -- 30.09 in1019.0 mb - 0.00 in0.0 mm 0.00 in0.0 mm
12:40 AM 61.8°F16.6°C 58.8°F14.9°C 90% Calm Calm -- 30.09 in1019.0 mb - 0.00 in0.0 mm 0.00 in0.0 mm
12:50 AM 61.7°F16.5°C 58.7°F14.8°C 90% Calm Calm -- 30.09 in1019.0 mb - 0.00 in0.0 mm 0.00 in0.0 mm
01:00 AM 61.6°F16.4°C 58.6°F14.8°C 90% Calm Calm -- 30.08 in1018.6 mb - 0.00 in0.0 mm 0.00 in0.0 mm
01:10 AM 61.3°F16.3°C 58.3°F14.6°C 90% 2.1 mph E3.4 kmh E 3.0 mph4.8 kmh 30.08 in1018.6 mb - 0.00 in0.0 mm 0.00 in0.0 mm
01:20 AM 61.1°F16.2°C 58.5°F14.7°C 91% Calm Calm -- 30.07 in1018.3 mb - 0.00 in0.0 mm 0.00 in0.0 mm
01:30 AM 60.9°F16.1°C 58.3°F14.6°C 91% Calm Calm -- 30.07 in1018.3 mb - 0.00 in0.0 mm 0.00 in0.0 mm
01:40 AM 60.7°F15.9°C 58.0°F14.4°C 91% Calm Calm -- 30.06 in1017.9 mb - 0.00 in0.0 mm 0.00 in0.0 mm
01:50 AM 60.6°F15.9°C 58.3°F14.6°C 92% 0.8 mph E1.3 kmh E -- 30.07 in1018.3 mb - 0.00 in0.0 mm 0.00 in0.0 mm
02:00 AM 60.7°F15.9°C 58.4°F14.7°C 92% Calm Calm -- 30.06 in1017.9 mb - 0.00 in0.0 mm 0.00 in0.0 mm
02:10 AM 60.6°F15.9°C 58.3°F14.6°C 92% Calm Calm -- 30.06 in1017.9 mb - 0.00 in0.0 mm 0.00 in0.0 mm
02:20 AM 60.6°F15.9°C 58.3°F14.6°C 92% Calm Calm -- 30.05 in1017.6 mb - 0.00 in0.0 mm 0.00 in0.0 mm
02:30 AM 60.5°F15.8°C 58.2°F14.6°C 92% Calm Calm -- 30.05 in1017.6 mb - 0.00 in0.0 mm 0.00 in0.0 mm
02:40 AM 60.5°F15.8°C 58.2°F14.6°C 92% Calm Calm -- 30.05 in1017.6 mb - 0.00 in0.0 mm 0.00 in0.0 mm
02:50 AM 60.3°F15.7°C 58.0°F14.4°C 92% Calm Calm -- 30.04 in1017.3 mb - 0.00 in0.0 mm 0.00 in0.0 mm
03:00 AM 60.4°F15.8°C 58.4°F14.7°C 93% Calm Calm -- 30.04 in1017.3 mb - 0.00 in0.0 mm 0.00 in0.0 mm
03:10 AM 60.4°F15.8°C 58.1°F14.5°C 92% Calm Calm -- 30.04 in1017.3 mb - 0.00 in0.0 mm 0.00 in0.0 mm
03:20 AM 60.2°F15.7°C 57.9°F14.4°C 92% Calm Calm -- 30.04 in1017.3 mb - 0.00 in0.0 mm 0.00 in0.0 mm
03:30 AM 60.0°F15.6°C 57.7°F14.3°C 92% Calm Calm -- 30.04 in1017.3 mb - 0.00 in0.0 mm 0.00 in0.0 mm
03:40 AM 60.0°F15.6°C 58.0°F14.4°C 93% Calm Calm -- 30.04 in1017.3 mb - 0.00 in0.0 mm 0.00 in0.0 mm
03:50 AM 60.3°F15.7°C 58.6°F14.8°C 94% Calm Calm -- 30.04 in1017.3 mb - 0.00 in0.0 mm 0.00 in0.0 mm
04:00 AM 61.1°F16.2°C 59.6°F15.3°C 95% Calm Calm -- 30.04 in1017.3 mb - 0.00 in0.0 mm 0.00 in0.0 mm
04:10 AM 61.8°F16.6°C 60.3°F15.7°C 95% Calm Calm -- 30.04 in1017.3 mb - 0.00 in0.0 mm 0.00 in0.0 mm
04:20 AM 62.3°F16.8°C 60.2°F15.7°C 93% Calm Calm -- 30.04 in1017.3 mb - 0.00 in0.0 mm 0.00 in0.0 mm
04:30 AM 62.7°F17.1°C 60.3°F15.7°C 92% Calm Calm -- 30.04 in1017.3 mb - 0.00 in0.0 mm 0.00 in0.0 mm
04:40 AM 63.4°F17.4°C 61.0°F16.1°C 92% 1.5 mph ENE2.4 kmh ENE 5.0 mph8.0 kmh 30.03 in1016.9 mb - 0.00 in0.0 mm 0.00 in0.0 mm
04:50 AM 63.9°F17.7°C 60.9°F16.1°C 90% 2.9 mph SE4.7 kmh SE 5.0 mph8.0 kmh 30.03 in1016.9 mb - 0.00 in0.0 mm 0.00 in0.0 mm
05:00 AM 63.8°F17.7°C 60.5°F15.8°C 89% Calm Calm -- 30.03 in1016.9 mb - 0.00 in0.0 mm 0.00 in0.0 mm
05:10 AM 63.7°F17.6°C 60.7°F15.9°C 90% 0.7 mph SE1.1 kmh SE 2.0 mph3.2 kmh 30.03 in1016.9 mb - 0.00 in0.0 mm 0.00 in0.0 mm
05:20 AM 63.8°F17.7°C 60.8°F16.0°C 90% 0.3 mph SE0.5 kmh SE -- 30.04 in1017.3 mb - 0.00 in0.0 mm 0.00 in0.0 mm
05:30 AM 63.9°F17.7°C 60.6°F15.9°C 89% Calm Calm -- 30.04 in1017.3 mb - 0.00 in0.0 mm 0.00 in0.0 mm
05:40 AM 63.8°F17.7°C 60.2°F15.7°C 88% Calm Calm 3.0 mph4.8 kmh 30.05 in1017.6 mb - 0.00 in0.0 mm 0.00 in0.0 mm
05:50 AM 63.2°F17.3°C 59.6°F15.3°C 88% 0.8 mph SE1.3 kmh SE 4.0 mph6.4 kmh 30.05 in1017.6 mb - 0.00 in0.0 mm 0.00 in0.0 mm
06:00 AM 62.8°F17.1°C 59.2°F15.1°C 88% Calm Calm -- 30.05 in1017.6 mb - 0.00 in0.0 mm 0.00 in0.0 mm
06:10 AM 62.3°F16.8°C 59.0°F15.0°C 89% Calm Calm -- 30.06 in1017.9 mb - 0.00 in0.0 mm 0.00 in0.0 mm
06:20 AM 62.0°F16.7°C 59.0°F15.0°C 90% 2.0 mph E3.2 kmh E 3.0 mph4.8 kmh 30.07 in1018.3 mb - 0.00 in0.0 mm 0.00 in0.0 mm
06:30 AM 62.0°F16.7°C 59.0°F15.0°C 90% Calm Calm -- 30.07 in1018.3 mb - 0.00 in0.0 mm 0.00 in0.0 mm
06:40 AM 63.0°F17.2°C 60.6°F15.9°C 92% Calm Calm -- 30.07 in1018.3 mb - 0.00 in0.0 mm 0.00 in0.0 mm
06:50 AM 63.6°F17.6°C 60.6°F15.9°C 90% 3.1 mph E5.0 kmh E 5.0 mph8.0 kmh 30.06 in1017.9 mb - 0.00 in0.0 mm 0.00 in0.0 mm
07:00 AM 63.8°F17.7°C 60.1°F15.6°C 88% 1.6 mph SE2.6 kmh SE 3.0 mph4.8 kmh 30.07 in1018.3 mb - 0.00 in0.0 mm 0.00 in0.0 mm
07:10 AM 63.8°F17.7°C 59.9°F15.5°C 87% 2.5 mph E4.0 kmh E 3.0 mph4.8 kmh 30.08 in1018.6 mb - 0.00 in0.0 mm 0.00 in0.0 mm
07:20 AM 64.3°F17.9°C 61.0°F16.1°C 89% 4.4 mph E7.1 kmh E 6.0 mph9.7 kmh 30.08 in1018.6 mb - 0.00 in0.0 mm 0.00 in0.0 mm
07:30 AM 65.4°F18.6°C 62.1°F16.7°C 89% 3.0 mph ESE4.8 kmh ESE 5.0 mph8.0 kmh 30.08 in1018.6 mb - 0.00 in0.0 mm 0.00 in0.0 mm
07:40 AM 66.4°F19.1°C 62.7°F17.1°C 88% Calm Calm -- 30.08 in1018.6 mb - 0.00 in0.0 mm 0.00 in0.0 mm
07:50 AM 67.0°F19.4°C 63.0°F17.2°C 87% 4.5 mph SE7.2 kmh SE 7.0 mph11.3 kmh 30.08 in1018.6 mb - 0.00 in0.0 mm 0.00 in0.0 mm
08:00 AM 68.0°F20.0°C 62.6°F17.0°C 83% 6.2 mph S10.0 kmh S 8.0 mph12.9 kmh 30.08 in1018.6 mb - 0.00 in0.0 mm 0.00 in0.0 mm
08:10 AM 69.5°F20.8°C 63.4°F17.4°C 81% Calm Calm -- 30.09 in1019.0 mb - 0.00 in0.0 mm 0.00 in0.0 mm
08:20 AM 71.2°F21.8°C 64.0°F17.8°C 78% Calm Calm -- 30.09 in1019.0 mb - 0.00 in0.0 mm 0.00 in0.0 mm
08:30 AM 72.1°F22.3°C 65.2°F18.4°C 79% 5.0 mph E8.0 kmh E 12.0 mph19.3 kmh 30.09 in1019.0 mb - 0.00 in0.0 mm 0.00 in0.0 mm
08:40 AM 73.1°F22.8°C 65.5°F18.6°C 77% 6.3 mph E10.1 kmh E 10.0 mph16.1 kmh 30.09 in1019.0 mb - 0.00 in0.0 mm 0.00 in0.0 mm
08:50 AM 72.2°F22.3°C 66.0°F18.9°C 81% 6.1 mph E9.8 kmh E 9.0 mph14.5 kmh 30.09 in1019.0 mb - 0.00 in0.0 mm 0.00 in0.0 mm
09:00 AM 70.7°F21.5°C 66.3°F19.1°C 86% 5.6 mph SE9.0 kmh SE 10.0 mph16.1 kmh 30.09 in1019.0 mb - 0.00 in0.0 mm 0.00 in0.0 mm
09:10 AM 70.1°F21.2°C 65.0°F18.3°C 84% 6.5 mph ESE10.5 kmh ESE 13.0 mph20.9 kmh 30.09 in1019.0 mb - 0.00 in0.0 mm 0.00 in0.0 mm
09:20 AM 70.0°F21.1°C 64.6°F18.1°C 83% 8.0 mph ESE12.9 kmh ESE 14.0 mph22.5 kmh 30.09 in1019.0 mb - 0.00 in0.0 mm 0.00 in0.0 mm
09:30 AM 71.0°F21.7°C 65.2°F18.4°C 82% 4.0 mph ESE6.4 kmh ESE 4.0 mph6.4 kmh 30.09 in1019.0 mb - 0.00 in0.0 mm 0.00 in0.0 mm
09:40 AM 71.0°F21.7°C 65.6°F18.7°C 83% 9.3 mph E15.0 kmh E 11.0 mph17.7 kmh 30.09 in1019.0 mb - 0.00 in0.0 mm 0.00 in0.0 mm
09:50 AM 71.5°F21.9°C 66.4°F19.1°C 84% 7.0 mph E11.3 kmh E 15.0 mph24.1 kmh 30.09 in1019.0 mb - 0.00 in0.0 mm 0.00 in0.0 mm
10:00 AM 72.2°F22.3°C 66.8°F19.3°C 83% 8.0 mph ENE12.9 kmh ENE 11.0 mph17.7 kmh 30.09 in1019.0 mb - 0.00 in0.0 mm 0.00 in0.0 mm
10:10 AM 73.2°F22.9°C 66.7°F19.3°C 80% 8.7 mph E14.0 kmh E 13.0 mph20.9 kmh 30.08 in1018.6 mb - 0.00 in0.0 mm 0.00 in0.0 mm
10:20 AM 74.6°F23.7°C 67.3°F19.6°C 78% 7.1 mph NE11.4 kmh NE 10.0 mph16.1 kmh 30.09 in1019.0 mb - 0.00 in0.0 mm 0.00 in0.0 mm
10:30 AM 75.5°F24.2°C 65.4°F18.6°C 71% 8.3 mph E13.4 kmh E 10.0 mph16.1 kmh 30.09 in1019.0 mb - 0.00 in0.0 mm 0.00 in0.0 mm
10:40 AM 76.7°F24.8°C 66.2°F19.0°C 70% 9.2 mph E14.8 kmh E 13.0 mph20.9 kmh 30.08 in1018.6 mb - 0.00 in0.0 mm 0.00 in0.0 mm
10:50 AM 77.7°F25.4°C 66.7°F19.3°C 69% 11.0 mph E17.7 kmh E 16.0 mph25.7 kmh 30.08 in1018.6 mb - 0.00 in0.0 mm 0.00 in0.0 mm
11:00 AM 78.3°F25.7°C 65.6°F18.7°C 65% 11.6 mph E18.7 kmh E 16.0 mph25.7 kmh 30.08 in1018.6 mb - 0.00 in0.0 mm 0.00 in0.0 mm
11:10 AM 78.4°F25.8°C 62.9°F17.2°C 59% 10.7 mph E17.2 kmh E 11.0 mph17.7 kmh 30.08 in1018.6 mb - 0.00 in0.0 mm 0.00 in0.0 mm
11:20 AM 79.1°F26.2°C 63.0°F17.2°C 58% 9.9 mph ESE15.9 kmh ESE 14.0 mph22.5 kmh 30.08 in1018.6 mb - 0.00 in0.0 mm 0.00 in0.0 mm
11:30 AM 79.9°F26.6°C 65.2°F18.4°C 61% 4.1 mph E6.6 kmh E 10.0 mph16.1 kmh 30.07 in1018.3 mb - 0.00 in0.0 mm 0.00 in0.0 mm
11:40 AM 79.4°F26.3°C 63.9°F17.7°C 59% 8.4 mph E13.5 kmh E 15.0 mph24.1 kmh 30.07 in1018.3 mb - 0.00 in0.0 mm 0.00 in0.0 mm
11:50 AM 79.0°F26.1°C 62.0°F16.7°C 56% 9.2 mph E14.8 kmh E 13.0 mph20.9 kmh 30.06 in1017.9 mb - 0.00 in0.0 mm 0.00 in0.0 mm
12:00 PM 79.4°F26.3°C 61.8°F16.6°C 55% 8.9 mph ENE14.3 kmh ENE 15.0 mph24.1 kmh 30.06 in1017.9 mb - 0.00 in0.0 mm 0.00 in0.0 mm
12:10 PM 79.9°F26.6°C 63.8°F17.7°C 58% 9.6 mph E15.4 kmh E 15.0 mph24.1 kmh 30.05 in1017.6 mb - 0.00 in0.0 mm 0.00 in0.0 mm
12:20 PM 79.2°F26.2°C 63.6°F17.6°C 59% 6.3 mph E10.1 kmh E 12.0 mph19.3 kmh 30.05 in1017.6 mb - 0.00 in0.0 mm 0.00 in0.0 mm
12:30 PM 77.9°F25.5°C 62.5°F16.9°C 59% 8.0 mph E12.9 kmh E 17.0 mph27.4 kmh 30.05 in1017.6 mb - 0.00 in0.0 mm 0.00 in0.0 mm
12:40 PM 76.1°F24.5°C 62.6°F17.0°C 63% 7.9 mph E12.7 kmh E 10.0 mph16.1 kmh 30.04 in1017.3 mb - 0.00 in0.0 mm 0.00 in0.0 mm
12:50 PM 75.2°F24.0°C 64.3°F17.9°C 69% 8.6 mph E13.8 kmh E 15.0 mph24.1 kmh 30.04 in1017.3 mb - 0.00 in0.0 mm 0.00 in0.0 mm
01:00 PM 75.3°F24.1°C 64.8°F18.2°C 70% 10.3 mph E16.6 kmh E 18.0 mph29.0 kmh 30.04 in1017.3 mb - 0.00 in0.0 mm 0.00 in0.0 mm
01:10 PM 75.1°F23.9°C 65.1°F18.4°C 71% 11.1 mph E17.9 kmh E 13.0 mph20.9 kmh 30.03 in1016.9 mb - 0.00 in0.0 mm 0.00 in0.0 mm
01:20 PM 75.2°F24.0°C 65.6°F18.7°C 72% 5.2 mph E8.4 kmh E 15.0 mph24.1 kmh 30.03 in1016.9 mb - 0.00 in0.0 mm 0.00 in0.0 mm
01:30 PM 75.2°F24.0°C 64.7°F18.2°C 70% 10.6 mph E17.1 kmh E 14.0 mph22.5 kmh 30.02 in1016.6 mb - 0.00 in0.0 mm 0.00 in0.0 mm
01:40 PM 74.9°F23.8°C 66.0°F18.9°C 74% 7.5 mph E12.1 kmh E 20.0 mph32.2 kmh 30.02 in1016.6 mb - 0.00 in0.0 mm 0.00 in0.0 mm
01:50 PM 74.2°F23.4°C 64.6°F18.1°C 72% 12.5 mph ENE20.1 kmh ENE 15.0 mph24.1 kmh 30.02 in1016.6 mb - 0.00 in0.0 mm 0.00 in0.0 mm
02:00 PM 75.3°F24.1°C 65.6°F18.7°C 72% 8.5 mph E13.7 kmh E 14.0 mph22.5 kmh 30.02 in1016.6 mb - 0.00 in0.0 mm 0.00 in0.0 mm
02:10 PM 75.1°F23.9°C 65.1°F18.4°C 71% 5.3 mph E8.5 kmh E 11.0 mph17.7 kmh 30.02 in1016.6 mb - 0.00 in0.0 mm 0.00 in0.0 mm
02:20 PM 74.5°F23.6°C 64.9°F18.3°C 72% 7.2 mph E11.6 kmh E 11.0 mph17.7 kmh 30.02 in1016.6 mb - 0.00 in0.0 mm 0.00 in0.0 mm
02:30 PM 73.9°F23.3°C 65.1°F18.4°C 74% 8.2 mph ENE13.2 kmh ENE 9.0 mph14.5 kmh 30.01 in1016.3 mb - 0.00 in0.0 mm 0.00 in0.0 mm
02:40 PM 74.9°F23.8°C 65.7°F18.7°C 73% 10.0 mph E16.1 kmh E 14.0 mph22.5 kmh 30.01 in1016.3 mb - 0.00 in0.0 mm 0.00 in0.0 mm
02:50 PM 74.2°F23.4°C 65.0°F18.3°C 73% 10.9 mph E17.5 kmh E 15.0 mph24.1 kmh 30.01 in1016.3 mb - 0.00 in0.0 mm 0.00 in0.0 mm
03:00 PM 73.8°F23.2°C 65.4°F18.6°C 75% 3.6 mph E5.8 kmh E 10.0 mph16.1 kmh 30.00 in1015.9 mb - 0.00 in0.0 mm 0.00 in0.0 mm
03:10 PM 73.5°F23.1°C 64.7°F18.2°C 74% 12.0 mph E19.3 kmh E 21.0 mph33.8 kmh 30.00 in1015.9 mb - 0.00 in0.0 mm 0.00 in0.0 mm
03:20 PM 72.8°F22.7°C 64.8°F18.2°C 76% 9.3 mph E15.0 kmh E 16.0 mph25.7 kmh 30.00 in1015.9 mb - 0.00 in0.0 mm 0.00 in0.0 mm
03:30 PM 72.6°F22.6°C 65.0°F18.3°C 77% 8.0 mph ENE12.9 kmh ENE 12.0 mph19.3 kmh 30.00 in1015.9 mb - 0.00 in0.0 mm 0.00 in0.0 mm
03:40 PM 72.8°F22.7°C 64.8°F18.2°C 76% 9.4 mph E15.1 kmh E 14.0 mph22.5 kmh 30.00 in1015.9 mb - 0.00 in0.0 mm 0.00 in0.0 mm
03:50 PM 72.6°F22.6°C 64.6°F18.1°C 76% 12.8 mph ENE20.6 kmh ENE 17.0 mph27.4 kmh 30.00 in1015.9 mb - 0.00 in0.0 mm 0.00 in0.0 mm
04:00 PM 74.2°F23.4°C 64.6°F18.1°C 72% 9.5 mph ENE15.3 kmh ENE 15.0 mph24.1 kmh 30.00 in1015.9 mb - 0.00 in0.0 mm 0.00 in0.0 mm
04:10 PM 74.3°F23.5°C 65.1°F18.4°C 73% 10.2 mph ENE16.4 kmh ENE 12.0 mph19.3 kmh 30.00 in1015.9 mb - 0.00 in0.0 mm 0.00 in0.0 mm
04:20 PM 72.8°F22.7°C 65.2°F18.4°C 77% 10.3 mph E16.6 kmh E 16.0 mph25.7 kmh 30.01 in1016.3 mb - 0.00 in0.0 mm 0.00 in0.0 mm
04:30 PM 72.1°F22.3°C 65.9°F18.8°C 81% 9.1 mph ENE14.6 kmh ENE 14.0 mph22.5 kmh 30.01 in1016.3 mb - 0.00 in0.0 mm 0.00 in0.0 mm
04:40 PM 71.7°F22.1°C 65.9°F18.8°C 82% 8.7 mph ENE14.0 kmh ENE 12.0 mph19.3 kmh 30.01 in1016.3 mb - 0.00 in0.0 mm 0.00 in0.0 mm
04:50 PM 71.4°F21.9°C 66.3°F19.1°C 84% 8.6 mph ENE13.8 kmh ENE 16.0 mph25.7 kmh 30.02 in1016.6 mb - 0.00 in0.0 mm 0.00 in0.0 mm
05:00 PM 70.0°F21.1°C 65.6°F18.7°C 86% 7.0 mph E11.3 kmh E 17.0 mph27.4 kmh 30.01 in1016.3 mb - 0.00 in0.0 mm 0.00 in0.0 mm
05:10 PM 70.9°F21.6°C 64.8°F18.2°C 81% 9.9 mph ENE15.9 kmh ENE 11.0 mph17.7 kmh 30.01 in1016.3 mb - 0.00 in0.0 mm 0.00 in0.0 mm
05:20 PM 71.7°F22.1°C 64.8°F18.2°C 79% 11.1 mph E17.9 kmh E 18.0 mph29.0 kmh 30.02 in1016.6 mb - 0.00 in0.0 mm 0.00 in0.0 mm
05:30 PM 71.5°F21.9°C 65.0°F18.3°C 80% 7.0 mph NE11.3 kmh NE 14.0 mph22.5 kmh 30.02 in1016.6 mb - 0.00 in0.0 mm 0.00 in0.0 mm
05:40 PM 70.5°F21.4°C 65.1°F18.4°C 83% 9.3 mph NE15.0 kmh NE 15.0 mph24.1 kmh 30.03 in1016.9 mb - 0.00 in0.0 mm 0.00 in0.0 mm
05:50 PM 69.2°F20.7°C 64.5°F18.1°C 85% 8.0 mph E12.9 kmh E 12.0 mph19.3 kmh 30.03 in1016.9 mb - 0.01 in0.3 mm 0.01 in0.3 mm
06:00 PM 67.8°F19.9°C 64.4°F18.0°C 89% 9.7 mph E15.6 kmh E 18.0 mph29.0 kmh 30.03 in1016.9 mb - 0.04 in1.0 mm 0.04 in1.0 mm
06:10 PM 67.2°F19.6°C 64.2°F17.9°C 90% 4.4 mph E7.1 kmh E 7.0 mph11.3 kmh 30.04 in1017.3 mb - 0.01 in0.3 mm 0.04 in1.0 mm
06:20 PM 66.7°F19.3°C 64.0°F17.8°C 91% 5.4 mph E8.7 kmh E 10.0 mph16.1 kmh 30.04 in1017.3 mb - 0.00 in0.0 mm 0.04 in1.0 mm
06:30 PM 66.1°F18.9°C 63.1°F17.3°C 90% 8.5 mph E13.7 kmh E 12.0 mph19.3 kmh 30.04 in1017.3 mb - 0.00 in0.0 mm 0.04 in1.0 mm
06:40 PM 65.5°F18.6°C 62.8°F17.1°C 91% 5.9 mph E9.5 kmh E 17.0 mph27.4 kmh 30.04 in1017.3 mb - 0.00 in0.0 mm 0.04 in1.0 mm
06:50 PM 65.2°F18.4°C 62.8°F17.1°C 92% 7.5 mph E12.1 kmh E 13.0 mph20.9 kmh 30.04 in1017.3 mb - 0.00 in0.0 mm 0.04 in1.0 mm
07:00 PM 65.0°F18.3°C 62.9°F17.2°C 93% 2.2 mph ENE3.5 kmh ENE 11.0 mph17.7 kmh 30.05 in1017.6 mb - 0.00 in0.0 mm 0.04 in1.0 mm
07:10 PM 64.9°F18.3°C 62.8°F17.1°C 93% 6.9 mph E11.1 kmh E 10.0 mph16.1 kmh 30.05 in1017.6 mb - 0.00 in0.0 mm 0.04 in1.0 mm
07:20 PM 64.7°F18.2°C 62.6°F17.0°C 93% 5.2 mph NE8.4 kmh NE 10.0 mph16.1 kmh 30.05 in1017.6 mb - 0.00 in0.0 mm 0.04 in1.0 mm
07:30 PM 64.7°F18.2°C 62.6°F17.0°C 93% 5.2 mph E8.4 kmh E 13.0 mph20.9 kmh 30.05 in1017.6 mb - 0.00 in0.0 mm 0.04 in1.0 mm
07:40 PM 64.9°F18.3°C 62.5°F16.9°C 92% 3.9 mph E6.3 kmh E 12.0 mph19.3 kmh 30.06 in1017.9 mb - 0.00 in0.0 mm 0.04 in1.0 mm
07:50 PM 65.3°F18.5°C 62.3°F16.8°C 90% 6.8 mph E10.9 kmh E 15.0 mph24.1 kmh 30.07 in1018.3 mb - 0.00 in0.0 mm 0.04 in1.0 mm
08:00 PM 65.6°F18.7°C 62.6°F17.0°C 90% 2.3 mph E3.7 kmh E 10.0 mph16.1 kmh 30.07 in1018.3 mb - 0.00 in0.0 mm 0.04 in1.0 mm
08:10 PM 65.7°F18.7°C 63.0°F17.2°C 91% 7.0 mph E11.3 kmh E 10.0 mph16.1 kmh 30.08 in1018.6 mb - 0.00 in0.0 mm 0.04 in1.0 mm
08:20 PM 65.6°F18.7°C 63.2°F17.3°C 92% 1.3 mph ENE2.1 kmh ENE 8.0 mph12.9 kmh 30.08 in1018.6 mb - 0.01 in0.3 mm 0.05 in1.3 mm
08:30 PM 65.4°F18.6°C 63.3°F17.4°C 93% 4.4 mph ENE7.1 kmh ENE 15.0 mph24.1 kmh 30.09 in1019.0 mb - 0.02 in0.5 mm 0.07 in1.8 mm
08:40 PM 65.3°F18.5°C 63.2°F17.3°C 93% 0.3 mph E0.5 kmh E -- 30.09 in1019.0 mb - 0.02 in0.5 mm 0.08 in2.0 mm
08:50 PM 65.3°F18.5°C 63.5°F17.5°C 94% 5.3 mph NE8.5 kmh NE 9.0 mph14.5 kmh 30.09 in1019.0 mb - 0.04 in1.0 mm 0.12 in3.0 mm
09:00 PM 65.4°F18.6°C 63.6°F17.6°C 94% 4.6 mph ENE7.4 kmh ENE 9.0 mph14.5 kmh 30.10 in1019.3 mb - 0.04 in1.0 mm 0.16 in4.1 mm
09:10 PM 65.6°F18.7°C 64.1°F17.8°C 95% 9.4 mph ENE15.1 kmh ENE 16.0 mph25.7 kmh 30.10 in1019.3 mb - 0.06 in1.5 mm 0.22 in5.6 mm
09:20 PM 65.6°F18.7°C 63.8°F17.7°C 94% 6.1 mph E9.8 kmh E 11.0 mph17.7 kmh 30.10 in1019.3 mb - 0.06 in1.5 mm 0.28 in7.1 mm
09:30 PM 65.6°F18.7°C 64.1°F17.8°C 95% 5.5 mph E8.9 kmh E 11.0 mph17.7 kmh 30.10 in1019.3 mb - 0.06 in1.5 mm 0.32 in8.1 mm
09:40 PM 65.7°F18.7°C 64.2°F17.9°C 95% 6.8 mph E10.9 kmh E 10.0 mph16.1 kmh 30.10 in1019.3 mb - 0.03 in0.8 mm 0.34 in8.6 mm
09:50 PM 65.7°F18.7°C 64.0°F17.8°C 94% 6.3 mph E10.1 kmh E 9.0 mph14.5 kmh 30.10 in1019.3 mb - 0.01 in0.3 mm 0.34 in8.6 mm
10:00 PM 65.6°F18.7°C 63.6°F17.6°C 93% 12.0 mph E19.3 kmh E 17.0 mph27.4 kmh 30.09 in1019.0 mb - 0.00 in0.0 mm 0.34 in8.6 mm
10:10 PM 65.7°F18.7°C 63.6°F17.6°C 93% 9.6 mph ESE15.4 kmh ESE 14.0 mph22.5 kmh 30.10 in1019.3 mb - 0.00 in0.0 mm 0.34 in8.6 mm
10:20 PM 65.6°F18.7°C 63.5°F17.5°C 93% 10.0 mph ENE16.1 kmh ENE 15.0 mph24.1 kmh 30.10 in1019.3 mb - 0.02 in0.5 mm 0.36 in9.1 mm
10:30 PM 65.2°F18.4°C 63.5°F17.5°C 94% 7.6 mph NE12.2 kmh NE 15.0 mph24.1 kmh 30.10 in1019.3 mb - 0.02 in0.5 mm 0.39 in9.9 mm
10:40 PM 65.2°F18.4°C 63.4°F17.4°C 94% 9.5 mph E15.3 kmh E 13.0 mph20.9 kmh 30.09 in1019.0 mb - 0.02 in0.5 mm 0.40 in10.2 mm
10:50 PM 65.2°F18.4°C 63.1°F17.3°C 93% 8.9 mph ENE14.3 kmh ENE 16.0 mph25.7 kmh 30.09 in1019.0 mb - 0.00 in0.0 mm 0.40 in10.2 mm
11:00 PM 64.9°F18.3°C 62.5°F16.9°C 92% 10.3 mph E16.6 kmh E 14.0 mph22.5 kmh 30.09 in1019.0 mb - 0.00 in0.0 mm 0.40 in10.2 mm
11:10 PM 64.8°F18.2°C 62.7°F17.1°C 93% 6.7 mph E10.8 kmh E 16.0 mph25.7 kmh 30.09 in1019.0 mb - 0.00 in0.0 mm 0.40 in10.2 mm
11:20 PM 64.9°F18.3°C 62.8°F17.1°C 93% 7.2 mph E11.6 kmh E 10.0 mph16.1 kmh 30.08 in1018.6 mb - 0.00 in0.0 mm 0.40 in10.2 mm
11:30 PM 65.0°F18.3°C 62.9°F17.2°C 93% 6.4 mph E10.3 kmh E 9.0 mph14.5 kmh 30.08 in1018.6 mb - 0.01 in0.3 mm 0.41 in10.4 mm
11:40 PM 65.1°F18.4°C 63.0°F17.2°C 93% 8.1 mph E13.0 kmh E 10.0 mph16.1 kmh 30.08 in1018.6 mb - 0.01 in0.3 mm 0.41 in10.4 mm
11:50 PM 65.2°F18.4°C 63.1°F17.3°C 93% 2.7 mph E4.3 kmh E 8.0 mph12.9 kmh 30.08 in1018.6 mb - 0.01 in0.3 mm 0.42 in10.7 mm